Burton, TX (77835)

11:24 PM CDT on June 25, 2017 (GMT -0500)
Andino Ranch | | Change Station

Elev 515 ft 30.16 °N, 96.63 °W | Updated 12 seconds ago

Rain
Rain
75.0 °F
Feels Like 73 °F
N
6.0
Wind Variable Wind from SE
Gusts 7.6 mph

Today
High -- | Low -- °F
--% Chance of Precip.
Yesterday
High -- | Low -- °F
Precip. -- in
Pressure 30.13 in
Visibility 10.0 miles
Clouds Scattered Clouds 3100 ft
Scattered Clouds 3900 ft
Mostly Cloudy 7000 ft
Heat Index 73 °F
Dew Point 74 °F
Humidity 96%
Rainfall 2.85 in
Snow Depth Not available.
6:26 AM 8:31 PM
Waxing Crescent, 6% visible
METAR K11R 260415Z AUTO 00000KT 10SM SCT031 SCT039 BKN070 25/24 A3013 RMK AO2 T02460240
Pressure 30.13 in
Visibility 10.0 miles
Clouds Scattered Clouds 3100 ft
Scattered Clouds 3900 ft
Mostly Cloudy 7000 ft
Heat Index 73 °F
Dew Point 74 °F
Humidity 96%
Rainfall 2.85 in
Snow Depth Not available.
6:26 AM 8:31 PM
Waxing Crescent, 6% visible
METAR K11R 260415Z AUTO 00000KT 10SM SCT031 SCT039 BKN070 25/24 A3013 RMK AO2 T02460240

Get Severe Weather Alerts

Thanks for signing up!

Be on the lookout for a verification email in your inbox.

You'll start receiving the daily forecast at 6 AM.

×

10-Day Weather Forecast

Almanac

Astronomy

Jun. 25, 2017 Rise Set
Actual Time
Civil Twilight
Nautical Twilight
Astronomical Twilight
Moon
Length of Visible Light
Length of Day
Tomorrow will be .
, % of the Moon is Illuminated

Today's Extremes

State Highs State Lows

Community

WunderPhotos

Category 6

Welcome to Category 6. This is the collective home for Weather Underground's featured writeups by Dr. Jeff Masters (right), Bob Henson (left), Chris Burt, and other regular contributors.

Nearby

Air Quality

  Air Quality AQ Index Pollutant
Not available.

Snow Depth

Station Depth Elevation

Earthquake Activity

City Distance Mag. Time & Date
Minimum magnitude displayed is 2.5.

Coastal Water Temperatures

Place Temperature

Stations

Nearby Weather Stations

Station Location Temp. Windchill Dew Point Humidity Wind Precip. Elev Updated Type
                   

Watches & Warnings

There are currently no watches in effect.